Brookline, MA

5:24 AM EDT on September 01, 2015 (GMT -0400)
Central Square | | Change Station
CLOSE
Current Station
Personal Weather Station
Location: Cambridge, MA
Elevation: 24 ft
Nearby Weather Stations

Elev 24 ft 42.36 °N, 71.11 °W | Updated 3 seconds ago

Partly Cloudy
Partly Cloudy
70.4 °F
Feels Like 73 °F
N
0.0
Wind Variable Wind from North
Gusts 5.0 mph

Today
High -- | Low -- °F
--% Chance of Precip.
Yesterday
High -- | Low -- °F
Precip. -- in
6:09 AM 7:18 PM
Waning Gibbous, 90% visible
Pressure 29.98 in
Visibility 10.0 miles
Clouds Few 20000 ft
Heat Index 73 °F
Dew Point 61 °F
Humidity 73%
Rainfall 0.00 in
Snow Depth Not available.
UV 0.0 out of 12
Pollen 10.80 out of 12
Air Quality Not available.
Flu Activity Not available.
METAR KBOS 010854Z 32009KT 10SM FEW200 22/17 A2998 RMK AO2 SLP152 T02220167 53004
Pressure 29.98 in
Visibility 10.0 miles
Clouds Few 20000 ft
Heat Index 73 °F
Dew Point 61 °F
Humidity 73%
Rainfall 0.00 in
Snow Depth Not available.
UV 0.0 out of 12
Pollen 10.80 out of 12
Air Quality Not available.
Flu Activity Not available.
METAR KBOS 010854Z 32009KT 10SM FEW200 22/17 A2998 RMK AO2 SLP152 T02220167 53004

10-Day Weather Forecast

×

Almanac

Astronomy

Sep. 01, 2015 Rise Set
Actual Time
Civil Twilight
Nautical Twilight
Astronomical Twilight
Moon
Length of Visible Light
Length of Day
Tomorrow will be .
, % of the Moon is Illuminated

Today's Extremes

State Highs State Lows

Community

WunderPhotos

Upload Photos

1,851,490 photos uploaded!

WunderBlogs® & News

Nearby

Air Quality

  Air Quality AQ Index Pollutant
Not available.

Snow Depth

Station Depth Elevation

Earthquake Activity

City Distance Mag. Time & Date
Minimum magnitude displayed is 2.5.

Coastal Water Temperatures

Place Temperature

Stations

Nearby Weather Stations

Station Location Temp. Windchill Dew Point Humidity Wind Precip. Elev Updated Type